createdAt,value
2023-08-21T00:01:25.661Z,9.07
2023-08-21T00:04:27.334Z,8.60
2023-08-21T00:07:28.959Z,8.47
2023-08-21T00:10:32.122Z,8.65
2023-08-21T00:13:33.758Z,8.98
2023-08-21T00:16:35.861Z,8.68
2023-08-21T00:19:37.585Z,9.25
2023-08-21T00:22:39.579Z,8.60
2023-08-21T00:25:41.473Z,8.32
2023-08-21T00:28:43.180Z,8.82
2023-08-21T00:31:44.839Z,8.90
2023-08-21T00:34:46.588Z,8.88
2023-08-21T00:37:48.399Z,8.80
2023-08-21T00:40:50.393Z,8.95
2023-08-21T00:43:51.996Z,9.20
2023-08-21T00:46:54.043Z,9.38
2023-08-21T00:49:56.545Z,9.05
2023-08-21T00:52:58.256Z,8.93
2023-08-21T00:56:00.259Z,9.30
2023-08-21T00:59:02.191Z,8.98
2023-08-21T01:02:03.964Z,9.00
2023-08-21T01:05:06.347Z,9.07
2023-08-21T01:08:25.892Z,9.27
2023-08-21T01:11:52.669Z,9.00
2023-08-21T01:15:07.569Z,9.10
2023-08-21T01:18:09.875Z,8.88
2023-08-21T01:21:12.369Z,8.70
2023-08-21T01:24:14.341Z,8.50
2023-08-21T01:27:17.114Z,8.80
2023-08-21T01:30:18.875Z,8.52
2023-08-21T01:33:21.946Z,9.00
2023-08-21T01:36:25.147Z,9.27
2023-08-21T01:39:27.018Z,8.80
2023-08-21T01:42:28.663Z,9.55
2023-08-21T01:45:30.423Z,9.30
2023-08-21T01:48:32.070Z,9.10
2023-08-21T01:51:33.709Z,8.85
2023-08-21T01:54:35.355Z,9.13
2023-08-21T01:57:37.196Z,9.48
2023-08-21T02:00:38.858Z,9.30
2023-08-21T02:03:41.582Z,9.45
2023-08-21T02:06:45.172Z,8.68
2023-08-21T02:09:46.811Z,8.77
2023-08-21T02:12:50.597Z,8.35
2023-08-21T02:15:52.205Z,8.75
2023-08-21T02:18:53.861Z,8.75
2023-08-21T02:21:55.536Z,9.15
2023-08-21T02:24:57.253Z,8.67
2023-08-21T02:27:58.893Z,8.35
2023-08-21T02:31:00.704Z,9.07
2023-08-21T02:34:02.436Z,8.93
2023-08-21T02:37:04.257Z,9.05
2023-08-21T02:40:09.162Z,9.23
2023-08-21T02:43:11.393Z,9.25
2023-08-21T02:46:13.114Z,9.60
2023-08-21T02:49:14.815Z,9.25
2023-08-21T02:52:16.562Z,9.82
2023-08-21T02:55:18.313Z,9.70
2023-08-21T02:58:20.112Z,9.32
2023-08-21T03:01:21.919Z,9.43
2023-08-21T03:04:24.287Z,9.30
2023-08-21T03:07:26.038Z,9.23
2023-08-21T03:10:29.580Z,9.10
2023-08-21T03:13:31.221Z,9.45
2023-08-21T03:16:32.895Z,9.93
2023-08-21T03:19:34.680Z,9.32
2023-08-21T03:22:36.732Z,9.52
2023-08-21T03:25:38.581Z,9.37
2023-08-21T03:28:40.202Z,9.10
2023-08-21T03:31:42.053Z,10.07
2023-08-21T03:34:44.029Z,9.48
2023-08-21T03:37:45.716Z,9.18
2023-08-21T03:40:47.538Z,9.57
2023-08-21T03:43:49.130Z,9.18
2023-08-21T03:46:50.894Z,9.70
2023-08-21T03:49:52.514Z,9.63
2023-08-21T03:52:54.105Z,9.40
2023-08-21T03:55:55.771Z,9.47
2023-08-21T03:58:57.573Z,9.50
2023-08-21T04:01:59.303Z,9.40
2023-08-21T04:05:01.075Z,9.50
2023-08-21T04:08:02.808Z,9.77
2023-08-21T04:11:05.481Z,10.00
2023-08-21T04:14:07.173Z,9.43
2023-08-21T04:17:08.811Z,9.95
2023-08-21T04:20:10.820Z,9.80
2023-08-21T04:23:12.476Z,9.52
2023-08-21T04:26:14.117Z,9.23
2023-08-21T04:29:15.718Z,9.68
2023-08-21T04:32:17.432Z,9.70
2023-08-21T04:35:19.058Z,9.25
2023-08-21T04:38:20.749Z,9.38
2023-08-21T04:41:22.480Z,9.13
2023-08-21T04:44:24.145Z,9.02
2023-08-21T04:47:29.258Z,9.57
2023-08-21T04:50:32.086Z,9.60
2023-08-21T04:53:34.939Z,9.60
2023-08-21T04:56:36.549Z,9.40
2023-08-21T04:59:39.369Z,9.65
2023-08-21T05:02:41.354Z,9.88
2023-08-21T05:05:43.055Z,9.50
2023-08-21T05:08:44.716Z,9.63
2023-08-21T05:11:46.379Z,10.87
2023-08-21T05:14:47.997Z,9.90
2023-08-21T05:17:49.609Z,9.68
2023-08-21T05:20:52.137Z,9.00
2023-08-21T05:23:53.771Z,9.30
2023-08-21T05:26:55.431Z,8.50
2023-08-21T05:29:57.128Z,9.48
2023-08-21T05:32:58.818Z,9.05
2023-08-21T05:36:00.553Z,8.30
2023-08-21T05:39:06.815Z,8.68
2023-08-21T05:42:08.485Z,9.53
2023-08-21T05:45:10.334Z,10.10
2023-08-21T05:48:12.032Z,9.07
2023-08-21T05:51:14.184Z,8.77
2023-08-21T05:54:16.005Z,8.70
2023-08-21T05:57:17.766Z,9.13
2023-08-21T06:00:19.718Z,9.10
2023-08-21T06:03:21.422Z,8.73
2023-08-21T06:06:23.237Z,9.40
2023-08-21T06:09:24.933Z,9.52
2023-08-21T06:12:26.593Z,9.40
2023-08-21T06:15:28.181Z,9.13
2023-08-21T06:18:29.926Z,9.23
2023-08-21T06:21:31.635Z,9.23
2023-08-21T06:24:33.286Z,8.95
2023-08-21T06:27:41.638Z,9.43
2023-08-21T06:30:58.129Z,9.32
2023-08-21T06:34:00.007Z,9.27
2023-08-21T06:37:02.046Z,9.63
2023-08-21T06:40:03.844Z,9.68
2023-08-21T06:43:06.990Z,9.43
2023-08-21T06:46:08.917Z,9.50
2023-08-21T06:49:10.643Z,9.45
2023-08-21T06:52:12.352Z,9.05
2023-08-21T06:55:14.036Z,9.43
2023-08-21T06:58:15.677Z,9.77
2023-08-21T07:01:18.313Z,9.35
2023-08-21T07:04:20.100Z,9.07
2023-08-21T07:07:21.767Z,9.50
2023-08-21T07:10:23.580Z,9.60
2023-08-21T07:13:25.481Z,9.20
2023-08-21T07:16:27.586Z,8.93
2023-08-21T07:19:29.297Z,9.15
2023-08-21T07:22:31.091Z,8.63
2023-08-21T07:25:32.722Z,8.52
2023-08-21T07:28:34.472Z,8.97
2023-08-21T07:31:36.161Z,9.00
2023-08-21T07:34:37.874Z,8.85
2023-08-21T07:37:41.997Z,8.23
2023-08-21T07:40:43.599Z,8.65
2023-08-21T07:43:45.557Z,8.50
2023-08-21T07:46:47.166Z,8.80
2023-08-21T07:49:48.826Z,9.27
2023-08-21T07:52:50.774Z,8.68
2023-08-21T07:55:52.598Z,9.10
2023-08-21T07:58:54.275Z,7.80
2023-08-21T08:01:55.967Z,8.30
2023-08-21T08:04:57.631Z,8.73
2023-08-21T08:07:59.242Z,8.70
2023-08-21T08:11:05.240Z,8.15
2023-08-21T08:14:06.891Z,8.97
2023-08-21T08:17:08.578Z,8.57
2023-08-21T08:20:10.885Z,8.60
2023-08-21T08:23:12.512Z,8.35
2023-08-21T08:26:14.250Z,8.27
2023-08-21T08:29:16.004Z,8.00
2023-08-21T08:32:17.740Z,8.00
2023-08-21T08:35:19.426Z,8.48
2023-08-21T08:38:21.775Z,8.43
2023-08-21T08:41:34.643Z,8.27
2023-08-21T08:44:38.192Z,8.30
2023-08-21T08:47:42.091Z,8.32
2023-08-21T08:50:44.890Z,8.00
2023-08-21T08:53:46.567Z,8.43
2023-08-21T08:56:49.769Z,8.50
2023-08-21T08:59:51.896Z,8.40
2023-08-21T09:02:53.584Z,8.55
2023-08-21T09:05:55.273Z,8.35
2023-08-21T09:08:58.288Z,8.48
2023-08-21T09:12:00.067Z,8.68
2023-08-21T09:15:07.678Z,8.57
2023-08-21T09:18:12.501Z,8.45
2023-08-21T09:21:17.492Z,8.30
2023-08-21T09:24:19.124Z,7.85
2023-08-21T09:27:20.792Z,7.90
2023-08-21T09:30:22.661Z,7.50
2023-08-21T09:33:25.565Z,7.90
2023-08-21T09:36:27.679Z,7.38
2023-08-21T09:39:34.509Z,7.68
2023-08-21T09:42:36.216Z,8.07
2023-08-21T09:45:38.011Z,8.83
2023-08-21T09:48:39.907Z,8.55
2023-08-21T09:51:41.585Z,7.93
2023-08-21T09:54:43.710Z,7.85
2023-08-21T09:57:46.504Z,8.32
2023-08-21T10:00:50.442Z,8.27
2023-08-21T10:03:56.738Z,7.90
2023-08-21T10:07:01.724Z,8.25
2023-08-21T10:10:03.617Z,8.32
2023-08-21T10:13:06.518Z,8.30
2023-08-21T10:16:10.087Z,8.40
2023-08-21T10:19:15.875Z,8.90
2023-08-21T10:22:40.062Z,8.10
2023-08-21T10:25:43.726Z,8.18
2023-08-21T10:28:56.423Z,8.85
2023-08-21T10:32:06.273Z,8.70
2023-08-21T10:35:16.257Z,8.18
2023-08-21T10:38:19.027Z,8.10
2023-08-21T10:41:27.357Z,7.90
2023-08-21T10:44:46.563Z,8.20
2023-08-21T10:47:50.446Z,7.70
2023-08-21T10:50:53.408Z,7.82
2023-08-21T10:53:54.998Z,8.43
2023-08-21T10:56:56.661Z,8.15
2023-08-21T11:00:04.848Z,8.27
2023-08-21T11:03:06.573Z,8.00
2023-08-21T11:06:10.187Z,8.25
2023-08-21T11:09:15.004Z,8.63
2023-08-21T11:12:18.820Z,7.93
2023-08-21T11:15:23.501Z,8.15
2023-08-21T11:18:31.711Z,7.93
2023-08-21T11:21:33.543Z,8.00
2023-08-21T11:24:38.228Z,8.07
2023-08-21T11:27:40.991Z,8.82
2023-08-21T11:30:44.530Z,8.60
2023-08-21T11:33:52.432Z,8.50
2023-08-21T11:36:54.113Z,8.25
2023-08-21T11:39:57.488Z,7.90
2023-08-21T11:43:03.260Z,7.95
2023-08-21T11:46:06.272Z,8.27
2023-08-21T11:49:07.984Z,8.30
2023-08-21T11:52:11.633Z,8.25
2023-08-21T11:55:13.345Z,8.40
2023-08-21T11:58:19.868Z,7.70
2023-08-21T12:01:21.915Z,8.15
2023-08-21T12:04:23.890Z,8.27
2023-08-21T12:07:25.581Z,8.00
2023-08-21T12:10:30.759Z,8.50
2023-08-21T12:13:35.498Z,7.68
2023-08-21T12:16:38.529Z,8.23
2023-08-21T12:19:40.575Z,8.13
2023-08-21T12:22:45.700Z,8.27
2023-08-21T12:25:47.539Z,7.85
2023-08-21T12:28:50.141Z,7.30
2023-08-21T12:31:51.935Z,8.30
2023-08-21T12:34:53.780Z,7.60
2023-08-21T12:37:59.590Z,7.55
2023-08-21T12:41:02.849Z,7.57
2023-08-21T12:44:04.592Z,7.70
2023-08-21T12:47:06.284Z,7.90
2023-08-21T12:50:08.362Z,6.93
2023-08-21T12:53:10.055Z,7.22
2023-08-21T12:56:11.688Z,7.60
2023-08-21T12:59:15.522Z,7.32
2023-08-21T13:02:19.609Z,7.55
2023-08-21T13:05:21.394Z,7.80
2023-08-21T13:08:23.063Z,7.60
2023-08-21T13:11:25.020Z,7.30
2023-08-21T13:14:27.008Z,6.85
2023-08-21T13:17:28.728Z,7.40
2023-08-21T13:20:30.489Z,7.33
2023-08-21T13:23:32.392Z,7.18
2023-08-21T13:26:34.113Z,7.30
2023-08-21T13:29:35.731Z,7.20
2023-08-21T13:32:37.462Z,6.70
2023-08-21T13:35:39.320Z,7.30
2023-08-21T13:38:41.110Z,6.65
2023-08-21T13:41:42.868Z,6.30
2023-08-21T13:44:45.934Z,5.85
2023-08-21T13:47:49.917Z,5.82
2023-08-21T13:50:51.811Z,6.10
2023-08-21T13:53:53.470Z,5.90
2023-08-21T13:56:55.102Z,6.20
2023-08-21T13:59:56.700Z,5.97
2023-08-21T14:02:58.601Z,6.40
2023-08-21T14:06:00.465Z,5.97
2023-08-21T14:09:02.152Z,6.03
2023-08-21T14:12:04.218Z,6.35
2023-08-21T14:15:07.068Z,6.45
2023-08-21T14:18:08.896Z,6.93
2023-08-21T14:21:10.653Z,7.17
2023-08-21T14:24:12.334Z,6.80
2023-08-21T14:27:14.051Z,6.47
2023-08-21T14:30:15.961Z,6.40
2023-08-21T14:33:17.598Z,6.60
2023-08-21T14:36:20.828Z,6.30
2023-08-21T14:39:22.424Z,6.70
2023-08-21T14:42:24.116Z,6.55
2023-08-21T14:45:25.703Z,6.68
2023-08-21T14:48:30.264Z,6.30
2023-08-21T14:51:31.957Z,6.30
2023-08-21T14:54:36.809Z,6.60
2023-08-21T14:57:38.464Z,6.70
2023-08-21T15:00:40.057Z,6.97
2023-08-21T15:03:43.879Z,6.65
2023-08-21T15:06:46.533Z,6.63
2023-08-21T15:09:48.154Z,6.65
2023-08-21T15:12:49.847Z,6.78
2023-08-21T15:15:51.651Z,6.82
2023-08-21T15:18:53.546Z,7.00
2023-08-21T15:21:55.138Z,6.97
2023-08-21T15:24:56.780Z,6.80
2023-08-21T15:27:58.593Z,6.68
2023-08-21T15:31:00.213Z,6.72
2023-08-21T15:34:03.024Z,6.60
2023-08-21T15:37:05.555Z,6.90
2023-08-21T15:40:08.566Z,6.68
2023-08-21T15:43:10.183Z,6.53
2023-08-21T15:46:11.956Z,6.97
2023-08-21T15:49:13.717Z,6.40
2023-08-21T15:52:15.460Z,6.70
2023-08-21T15:55:17.815Z,7.13
2023-08-21T15:58:19.502Z,6.85
2023-08-21T16:01:21.223Z,6.72
2023-08-21T16:04:23.072Z,6.97
2023-08-21T16:07:24.732Z,6.70
2023-08-21T16:10:26.439Z,7.05
2023-08-21T16:13:29.909Z,6.97
2023-08-21T16:16:31.628Z,7.35
2023-08-21T16:19:33.296Z,6.70
2023-08-21T16:22:36.614Z,6.93
2023-08-21T16:25:38.596Z,6.75
2023-08-21T16:28:40.299Z,6.95
2023-08-21T16:31:41.951Z,6.47
2023-08-21T16:34:43.589Z,6.97
2023-08-21T16:37:45.635Z,7.00
2023-08-21T16:40:47.404Z,6.72
2023-08-21T16:43:48.982Z,7.32
2023-08-21T16:46:50.612Z,7.07
2023-08-21T16:49:52.396Z,7.05
2023-08-21T16:52:53.992Z,6.87
2023-08-21T16:55:55.604Z,7.55
2023-08-21T16:58:57.403Z,6.97
2023-08-21T17:01:59.067Z,7.43
2023-08-21T17:05:00.678Z,6.80
2023-08-21T17:08:02.897Z,7.13
2023-08-21T17:11:04.639Z,7.10
2023-08-21T17:14:06.370Z,7.78
2023-08-21T17:17:07.975Z,7.50
2023-08-21T17:20:10.644Z,7.85
2023-08-21T17:23:13.275Z,7.50
2023-08-21T17:26:15.085Z,8.63
2023-08-21T17:29:16.719Z,7.85
2023-08-21T17:32:18.808Z,7.30
2023-08-21T17:35:20.503Z,8.07
2023-08-21T17:38:22.153Z,7.83
2023-08-21T17:41:23.887Z,8.40
2023-08-21T17:44:25.576Z,8.80
2023-08-21T17:47:27.253Z,8.25
2023-08-21T17:50:29.045Z,8.80
2023-08-21T17:53:30.653Z,9.50
2023-08-21T17:56:32.246Z,8.88
2023-08-21T17:59:33.911Z,9.73
2023-08-21T18:02:35.552Z,8.90
2023-08-21T18:05:37.661Z,9.52
2023-08-21T18:08:39.329Z,10.03
2023-08-21T18:11:41.055Z,10.10
2023-08-21T18:14:42.697Z,9.40
2023-08-21T18:17:44.610Z,10.10
2023-08-21T18:20:53.640Z,10.00
2023-08-21T18:23:55.206Z,9.17
2023-08-21T18:26:56.821Z,9.60
2023-08-21T18:29:59.755Z,9.02
2023-08-21T18:33:01.486Z,8.85
2023-08-21T18:36:03.878Z,9.38
2023-08-21T18:39:05.514Z,8.93
2023-08-21T18:42:07.449Z,9.20
2023-08-21T18:45:09.705Z,9.75
2023-08-21T18:48:11.957Z,9.55
2023-08-21T18:51:13.795Z,9.50
2023-08-21T18:54:17.083Z,9.00
2023-08-21T18:57:19.287Z,9.43
2023-08-21T19:00:20.974Z,9.60
2023-08-21T19:03:22.829Z,9.80
2023-08-21T19:06:24.662Z,9.35
2023-08-21T19:09:27.389Z,9.73
2023-08-21T19:12:29.204Z,9.48
2023-08-21T19:15:30.948Z,9.75
2023-08-21T19:18:32.622Z,9.95
2023-08-21T19:21:34.302Z,10.13
2023-08-21T19:24:35.962Z,10.13
2023-08-21T19:27:37.923Z,9.65
2023-08-21T19:30:39.735Z,9.65
2023-08-21T19:33:41.577Z,9.82
2023-08-21T19:36:43.294Z,9.70
2023-08-21T19:39:44.980Z,9.50
2023-08-21T19:42:46.654Z,9.98
2023-08-21T19:45:55.897Z,10.07
2023-08-21T19:48:57.606Z,10.10
2023-08-21T19:51:59.292Z,10.07
2023-08-21T19:55:00.959Z,9.90
2023-08-21T19:58:03.259Z,10.02
2023-08-21T20:01:08.471Z,9.90
2023-08-21T20:04:10.208Z,10.30
2023-08-21T20:07:12.256Z,10.07
2023-08-21T20:10:14.211Z,10.40
2023-08-21T20:13:15.819Z,10.40
2023-08-21T20:16:18.853Z,10.23
2023-08-21T20:19:20.585Z,9.90
2023-08-21T20:22:22.265Z,9.90
2023-08-21T20:25:23.940Z,10.33
2023-08-21T20:28:25.709Z,10.70
2023-08-21T20:31:27.554Z,11.32
2023-08-21T20:34:29.225Z,17.63
2023-08-21T20:37:30.873Z,23.15
2023-08-21T20:40:32.548Z,14.18
2023-08-21T20:43:34.802Z,11.17
2023-08-21T20:46:37.020Z,10.32
2023-08-21T20:49:39.730Z,9.85
2023-08-21T20:52:41.810Z,9.77
2023-08-21T20:55:43.508Z,11.02
2023-08-21T20:58:45.101Z,12.00
2023-08-21T21:01:47.077Z,14.98
2023-08-21T21:04:52.664Z,15.23
2023-08-21T21:07:54.544Z,14.13
2023-08-21T21:10:58.478Z,11.90
2023-08-21T21:14:00.298Z,12.40
2023-08-21T21:17:01.975Z,13.93
2023-08-21T21:20:04.708Z,13.43
2023-08-21T21:23:06.381Z,12.82
2023-08-21T21:26:08.121Z,13.27
2023-08-21T21:29:10.961Z,12.47
2023-08-21T21:32:12.719Z,12.13
2023-08-21T21:35:14.715Z,11.80
2023-08-21T21:38:16.489Z,11.18
2023-08-21T21:41:18.485Z,10.15
2023-08-21T21:44:20.319Z,9.90
2023-08-21T21:47:22.015Z,10.77
2023-08-21T21:50:23.639Z,10.13
2023-08-21T21:53:26.852Z,9.18
2023-08-21T21:56:28.540Z,9.27
2023-08-21T21:59:30.168Z,8.80
2023-08-21T22:02:31.911Z,8.68
2023-08-21T22:05:33.710Z,9.20
2023-08-21T22:08:36.411Z,9.30
2023-08-21T22:11:38.061Z,9.80
2023-08-21T22:14:43.012Z,9.70
2023-08-21T22:17:45.500Z,10.05
2023-08-21T22:20:47.760Z,10.02
2023-08-21T22:23:49.400Z,9.95
2023-08-21T22:26:51.011Z,10.07
2023-08-21T22:29:52.723Z,9.73
2023-08-21T22:32:54.710Z,9.63
2023-08-21T22:35:56.468Z,9.35
2023-08-21T22:38:58.180Z,9.30
2023-08-21T22:41:59.878Z,9.23
2023-08-21T22:45:02.124Z,9.37
2023-08-21T22:48:04.094Z,9.20
2023-08-21T22:51:07.082Z,10.00
2023-08-21T22:54:09.143Z,9.63
2023-08-21T22:57:10.770Z,9.80
2023-08-21T23:00:12.998Z,10.13
2023-08-21T23:03:14.698Z,9.10
2023-08-21T23:06:16.397Z,9.05
2023-08-21T23:09:18.075Z,9.13
2023-08-21T23:12:19.738Z,8.68
2023-08-21T23:15:22.678Z,8.43
2023-08-21T23:18:24.374Z,8.38
2023-08-21T23:21:26.051Z,8.45
2023-08-21T23:24:27.936Z,7.70
2023-08-21T23:27:29.605Z,8.15
2023-08-21T23:30:31.651Z,7.93
2023-08-21T23:33:33.384Z,7.95
2023-08-21T23:36:35.289Z,8.13
2023-08-21T23:39:37.008Z,8.25
2023-08-21T23:42:38.604Z,7.82
2023-08-21T23:45:40.259Z,8.20
2023-08-21T23:48:43.067Z,7.85
2023-08-21T23:51:44.883Z,8.30
2023-08-21T23:54:46.799Z,8.38
2023-08-21T23:57:48.571Z,8.02
